Time;durP1;ratioP1;P1;durP2;ratioP2;P2;SDS_P1;SDS_P2;PMS_P1;PMS_P2;Temp;Humidity;BMP_temperature;BMP_pressure;BME280_temperature;BME280_humidity;BME280_pressure;Samples;Min_cycle;Max_cycle;Signal;HPM_P1;HPM_P2
2021/08/01 00:00:22;;;;;;;18.65;11.20;;;;;;;19.76;81.07;99559.47;1748153;82;21049;-82
2021/08/01 00:02:49;;;;;;;16.97;10.90;;;;;;;19.74;81.02;99557.42;1748366;82;21116;-82
2021/08/01 00:05:16;;;;;;;14.90;10.03;;;;;;;19.71;80.60;99553.65;1747956;82;21147;-80
2021/08/01 00:07:44;;;;;;;17.77;10.08;;;;;;;19.71;81.18;99560.33;1748309;82;21092;-78
2021/08/01 00:10:12;;;;;;;20.08;11.33;;;;;;;19.67;82.09;99553.05;1747959;82;22071;-79
2021/08/01 00:12:40;;;;;;;16.70;9.23;;;;;;;19.64;82.28;99555.11;1747964;82;21167;-78
2021/08/01 00:15:08;;;;;;;12.40;7.87;;;;;;;19.59;82.08;99552.83;1761695;80;21033;-83
2021/08/01 00:17:35;;;;;;;17.95;10.93;;;;;;;19.56;82.68;99556.26;1779627;80;21089;-83
2021/08/01 00:20:02;;;;;;;14.98;9.25;;;;;;;19.53;82.70;99549.81;1778661;80;21182;-85
2021/08/01 00:22:29;;;;;;;16.87;10.85;;;;;;;19.50;79.65;99547.76;1814376;79;21118;-87
2021/08/01 00:24:57;;;;;;;20.55;10.00;;;;;;;19.51;82.17;99548.63;1813229;79;21049;-84
2021/08/01 00:27:24;;;;;;;14.68;7.87;;;;;;;19.50;81.50;99547.76;1787666;79;21005;-85
2021/08/01 00:29:51;;;;;;;18.90;10.10;;;;;;;19.52;81.88;99545.47;1784881;80;21029;-85
2021/08/01 00:32:18;;;;;;;13.80;10.68;;;;;;;19.50;82.55;99550.43;1783916;80;21508;-84
2021/08/01 00:34:44;;;;;;;16.75;10.00;;;;;;;19.48;81.37;99539.02;1783340;80;21147;-86
2021/08/01 00:37:12;;;;;;;15.30;10.85;;;;;;;19.49;82.33;99542.08;1783111;80;22208;-84
2021/08/01 00:39:40;;;;;;;14.28;10.03;;;;;;;19.48;83.29;99536.36;1783365;80;21053;-84
2021/08/01 00:42:10;;;;;;;18.98;10.72;;;;;;;19.47;81.96;99536.01;1783371;80;21177;-84
2021/08/01 00:44:39;;;;;;;19.90;10.93;;;;;;;19.45;83.54;99533.95;1782511;80;21077;-83
2021/08/01 00:47:06;;;;;;;13.90;9.85;;;;;;;19.46;83.56;99534.33;1783780;80;21863;-87
2021/08/01 00:49:34;;;;;;;15.50;9.95;;;;;;;19.43;82.98;99531.89;1783688;80;21068;-86
2021/08/01 00:52:04;;;;;;;14.00;9.98;;;;;;;19.46;84.05;99535.66;1784131;80;20978;-88
2021/08/01 00:54:33;;;;;;;17.37;10.00;;;;;;;19.45;82.55;99535.78;1779762;80;21055;-87
2021/08/01 00:57:06;;;;;;;14.83;10.90;;;;;;;19.46;81.44;99543.67;1742314;82;21075;-88
2021/08/01 00:59:34;;;;;;;15.08;11.35;;;;;;;19.47;82.34;99537.84;1794056;80;21167;-86
2021/08/01 01:02:11;;;;;;;20.68;10.82;;;;;;;19.48;83.36;99539.02;1741494;82;21610;-80
2021/08/01 01:04:52;;;;;;;17.55;10.40;;;;;;;19.47;84.12;99538.68;1792753;80;21547;-80
2021/08/01 01:07:37;;;;;;;16.48;10.23;;;;;;;19.47;83.81;99545.36;1741986;82;21080;-80
2021/08/01 01:10:18;;;;;;;16.82;10.25;;;;;;;19.47;79.86;99553.37;1742234;82;21076;-81
2021/08/01 01:12:52;;;;;;;18.52;10.40;;;;;;;19.47;82.14;99548.02;1792491;80;21532;-81
2021/08/01 01:15:22;;;;;;;13.48;8.50;;;;;;;19.48;83.26;99546.20;1740587;82;21111;-78
2021/08/01 01:17:52;;;;;;;13.58;8.98;;;;;;;19.52;79.39;99540.12;1773064;80;21056;-81
2021/08/01 01:21:01;;;;;;;16.27;10.85;;;;;;;19.57;81.87;99533.41;1773128;80;21036;-81
2021/08/01 01:23:42;;;;;;;14.10;10.03;;;;;;;19.59;82.05;99540.81;1742249;82;21625;-81
2021/08/01 01:26:39;;;;;;;12.25;8.08;;;;;;;19.59;81.64;99535.96;1740958;81;21190;-83
2021/08/01 01:29:40;;;;;;;17.32;11.25;;;;;;;19.61;81.57;99543.36;1771713;81;21053;-81
2021/08/01 01:32:10;;;;;;;21.23;11.22;;;;;;;19.63;82.54;99538.73;1772211;81;21073;-80
2021/08/01 01:34:49;;;;;;;15.13;9.73;;;;;;;19.65;81.63;99538.13;1771383;81;21013;-79
2021/08/01 01:37:18;;;;;;;16.97;10.38;;;;;;;19.71;80.91;99534.95;1771439;81;21072;-79
2021/08/01 01:39:46;;;;;;;23.55;12.13;;;;;;;19.78;82.34;99537.45;1771712;81;21819;-78
2021/08/01 01:42:24;;;;;;;12.78;8.83;;;;;;;19.84;80.52;99531.60;1768495;81;22087;-77
2021/08/01 01:44:53;;;;;;;22.87;12.58;;;;;;;19.91;81.63;99527.42;1743927;81;21044;-80
2021/08/01 01:47:22;;;;;;;18.20;11.33;;;;;;;19.97;82.59;99522.52;1766987;81;21104;-77
2021/08/01 01:49:49;;;;;;;19.25;10.35;;;;;;;19.98;81.05;99520.23;1782009;80;21104;-78
2021/08/01 01:52:18;;;;;;;16.52;10.25;;;;;;;20.01;82.19;99514.11;1781688;80;21198;-78
2021/08/01 01:54:49;;;;;;;18.07;10.80;;;;;;;20.03;80.49;99518.00;1780054;80;21073;-77
2021/08/01 01:57:16;;;;;;;16.32;10.93;;;;;;;20.06;79.23;99527.08;1753470;80;21083;-78
2021/08/01 01:59:44;;;;;;;16.32;9.70;;;;;;;20.08;81.78;99514.44;1782398;80;21005;-83
2021/08/01 02:02:14;;;;;;;15.20;9.48;;;;;;;20.09;81.88;99512.14;1785016;80;21353;-80
2021/08/01 02:04:41;;;;;;;15.50;10.43;;;;;;;20.17;80.74;99506.95;1783349;80;21123;-80
2021/08/01 02:07:26;;;;;;;10.63;8.50;;;;;;;20.25;81.24;99504.47;1783691;80;20974;-80
2021/08/01 02:10:27;;;;;;;12.23;9.35;;;;;;;20.37;79.11;99505.72;1782095;79;20986;-80
2021/08/01 02:12:56;;;;;;;13.87;9.70;;;;;;;20.47;78.71;99500.74;1787133;78;20906;-79
2021/08/01 02:15:35;;;;;;;16.30;9.00;;;;;;;20.58;79.32;99512.38;1785164;79;21033;-79
2021/08/01 02:18:08;;;;;;;14.30;8.95;;;;;;;20.61;74.92;99506.23;1786003;79;21106;-83
2021/08/01 02:20:46;;;;;;;16.80;10.35;;;;;;;20.63;76.63;99500.27;1782887;80;21017;-79
2021/08/01 02:23:24;;;;;;;15.10;9.23;;;;;;;20.66;77.54;99505.36;1773506;80;21096;-81
2021/08/01 02:25:54;;;;;;;15.50;9.55;;;;;;;20.66;74.00;99505.83;1781603;80;21049;-73
2021/08/01 02:28:23;;;;;;;15.68;10.55;;;;;;;20.63;75.91;99502.94;1781319;79;21048;-74
2021/08/01 02:30:51;;;;;;;13.83;9.83;;;;;;;20.59;75.61;99498.00;1781620;80;21970;-73
2021/08/01 02:33:18;;;;;;;18.55;10.75;;;;;;;20.56;74.61;99509.81;1781047;80;21045;-74
2021/08/01 02:35:46;;;;;;;15.35;9.85;;;;;;;20.52;77.93;99504.34;1753409;80;21021;-74
2021/08/01 02:38:14;;;;;;;10.82;8.28;;;;;;;20.47;74.89;99506.59;1781208;80;21088;-74
2021/08/01 02:40:41;;;;;;;18.20;10.48;;;;;;;20.45;75.63;99501.86;1781517;80;21041;-74
2021/08/01 02:43:10;;;;;;;13.08;9.85;;;;;;;20.43;76.71;99502.48;1780971;80;21164;-75
2021/08/01 02:45:42;;;;;;;16.77;10.03;;;;;;;20.37;78.77;99502.55;1781599;80;21065;-74
2021/08/01 02:48:11;;;;;;;16.73;10.78;;;;;;;20.30;80.31;99502.73;1781485;80;21048;-73
2021/08/01 02:50:40;;;;;;;13.55;9.55;;;;;;;20.23;80.34;99501.58;1781881;80;21064;-74
2021/08/01 02:53:10;;;;;;;14.23;9.98;;;;;;;20.19;81.01;99502.33;1781375;80;21512;-75
2021/08/01 02:55:38;;;;;;;;;;;;;;;20.17;82.00;99500.27;1787414;80;21107;-74
2021/08/01 02:58:05;;;;;;;12.55;9.43;;;;;;;20.13;81.45;99510.90;1768744;81;20184;-74
2021/08/01 03:00:35;;;;;;;16.82;10.50;;;;;;;20.13;82.12;99513.57;1761130;81;21108;-72
2021/08/01 03:03:04;;;;;;;13.03;9.55;;;;;;;20.11;82.69;99512.85;1768054;81;21119;-74
2021/08/01 03:05:32;;;;;;;19.52;10.68;;;;;;;20.09;82.97;99505.45;1754029;80;21701;-75
2021/08/01 03:08:00;;;;;;;16.85;10.45;;;;;;;20.08;83.38;99505.08;1781325;80;21153;-75
2021/08/01 03:10:27;;;;;;;12.00;9.38;;;;;;;20.10;83.14;99505.80;1753012;80;21048;-76
2021/08/01 03:12:54;;;;;;;14.95;10.35;;;;;;;20.11;83.46;99504.84;1781396;80;21049;-75
2021/08/01 03:15:24;;;;;;;18.57;9.48;;;;;;;20.14;83.95;99509.91;1729322;80;21128;-75
2021/08/01 03:17:52;;;;;;;15.38;10.45;;;;;;;20.15;83.11;99507.57;1781453;80;21104;-75
2021/08/01 03:20:18;;;;;;;16.30;9.70;;;;;;;20.22;83.78;99516.78;1781922;80;22226;-75
2021/08/01 03:22:47;;;;;;;11.18;7.55;;;;;;;20.27;82.36;99508.36;1776566;80;21551;-76
2021/08/01 03:25:14;;;;;;;16.23;9.75;;;;;;;20.35;80.83;99503.66;1753241;80;21021;-78
2021/08/01 03:27:41;;;;;;;15.00;10.53;;;;;;;20.40;82.73;99502.77;1781383;80;21150;-75
2021/08/01 03:30:12;;;;;;;8.85;7.00;;;;;;;20.41;82.52;99507.98;1782201;80;21068;-75
2021/08/01 03:32:39;;;;;;;15.98;11.35;;;;;;;20.47;81.09;99510.60;1782188;80;21121;-75
2021/08/01 03:35:07;;;;;;;10.95;8.35;;;;;;;20.52;81.29;99509.70;1782437;80;21084;-74
2021/08/01 03:37:36;;;;;;;13.03;9.33;;;;;;;20.62;80.43;99519.98;1781505;80;21092;-76
2021/08/01 03:40:22;;;;;;;18.15;9.83;;;;;;;20.75;81.28;99521.06;1752081;81;21053;-78
2021/08/01 03:42:49;;;;;;;14.15;9.13;;;;;;;20.91;79.15;99529.44;1751870;81;21081;-80
2021/08/01 03:45:17;;;;;;;12.65;10.95;;;;;;;21.20;76.21;99528.63;1751904;81;21733;-79
2021/08/01 03:47:44;;;;;;;16.15;10.43;;;;;;;21.61;78.47;99536.57;1751736;81;21119;-78
2021/08/01 03:50:11;;;;;;;18.75;10.15;;;;;;;21.92;74.62;99531.36;1752032;81;21044;-80
2021/08/01 03:52:39;;;;;;;14.58;10.38;;;;;;;22.29;74.71;99535.98;1752009;81;21579;-77
2021/08/01 03:55:08;;;;;;;10.15;7.90;;;;;;;22.51;73.64;99534.75;1767385;80;21069;-79
2021/08/01 03:57:34;;;;;;;15.83;10.90;;;;;;;22.52;71.31;99536.92;1772343;80;21274;-80
2021/08/01 04:00:06;;;;;;;17.50;11.60;;;;;;;22.56;73.15;99538.33;1774805;80;21110;-78
2021/08/01 04:02:40;;;;;;;12.75;9.08;;;;;;;22.61;71.03;99542.74;1764601;80;21207;-74
2021/08/01 04:05:06;;;;;;;15.83;11.25;;;;;;;22.60;68.07;99555.83;1775457;80;21078;-73
2021/08/01 04:07:35;;;;;;;22.22;10.90;;;;;;;22.53;71.10;99556.91;1774230;80;21084;-74
2021/08/01 04:10:02;;;;;;;10.38;7.37;;;;;;;22.46;69.96;99554.47;1782178;80;22315;-73
2021/08/01 04:12:30;;;;;;;14.38;11.03;;;;;;;22.41;69.47;99553.58;1766375;80;21060;-76
2021/08/01 04:14:59;;;;;;;15.30;10.28;;;;;;;22.38;70.91;99556.56;1782482;80;21577;-76
2021/08/01 04:17:29;;;;;;;20.02;11.33;;;;;;;22.37;67.52;99564.23;1782889;80;21077;-79
2021/08/01 04:19:56;;;;;;;15.15;10.18;;;;;;;22.34;73.07;99561.86;1769422;80;21118;-77
2021/08/01 04:22:22;;;;;;;14.83;10.00;;;;;;;22.26;70.26;99557.70;1779622;80;21562;-79
2021/08/01 04:24:50;;;;;;;17.57;12.28;;;;;;;22.26;70.14;99560.89;1782729;80;21634;-78
2021/08/01 04:27:17;;;;;;;14.00;8.68;;;;;;;22.24;72.81;99560.19;1782913;80;21078;-78
2021/08/01 04:29:43;;;;;;;17.52;11.38;;;;;;;22.22;67.63;99565.69;1782585;80;21120;-78
2021/08/01 04:32:14;;;;;;;20.82;13.08;;;;;;;22.26;72.86;99567.09;1782537;80;21076;-77
2021/08/01 04:34:41;;;;;;;16.85;11.33;;;;;;;22.30;71.39;99564.98;1776168;80;21119;-78
2021/08/01 04:37:08;;;;;;;22.02;13.25;;;;;;;22.33;69.88;99554.78;1781875;80;21053;-78
2021/08/01 04:39:37;;;;;;;19.82;11.85;;;;;;;22.39;72.93;99554.21;1775449;80;20996;-80
2021/08/01 04:42:04;;;;;;;19.32;11.12;;;;;;;22.49;70.89;99554.67;1777100;80;21009;-78
2021/08/01 04:44:31;;;;;;;15.63;11.55;;;;;;;22.66;71.68;99563.30;1778626;80;21075;-79
2021/08/01 04:46:59;;;;;;;16.95;11.15;;;;;;;22.96;71.92;99555.44;1777683;80;21135;-79
2021/08/01 04:49:26;;;;;;;21.10;11.93;;;;;;;23.43;67.88;99557.95;1775122;80;21057;-76
2021/08/01 04:51:53;;;;;;;14.30;10.93;;;;;;;24.04;68.45;99554.98;1781985;80;21591;-76
2021/08/01 04:54:20;;;;;;;16.50;10.08;;;;;;;24.72;65.34;99564.13;1776151;80;21042;-77
2021/08/01 04:56:48;;;;;;;16.52;10.88;;;;;;;25.36;61.58;99566.38;1767530;81;21042;-76
2021/08/01 04:59:14;;;;;;;11.93;8.80;;;;;;;25.88;61.54;99566.96;1767910;81;21120;-78
2021/08/01 05:01:43;;;;;;;16.20;10.78;;;;;;;26.25;57.60;99564.70;1767525;81;21069;-79
2021/08/01 05:04:12;;;;;;;16.87;11.18;;;;;;;26.39;58.78;99561.31;1727315;80;21555;-78
2021/08/01 05:06:39;;;;;;;12.80;10.05;;;;;;;26.40;57.48;99553.54;1782792;80;21198;-78
2021/08/01 05:09:07;;;;;;;16.27;11.40;;;;;;;26.36;57.90;99557.59;1782581;80;21013;-78
2021/08/01 05:11:34;;;;;;;18.37;10.43;;;;;;;26.30;58.21;99562.35;1782725;80;21458;-78
2021/08/01 05:14:01;;;;;;;21.42;11.18;;;;;;;26.20;56.20;99552.23;1780824;80;21097;-79
2021/08/01 05:16:29;;;;;;;16.23;11.30;;;;;;;26.12;57.23;99549.89;1777761;79;22056;-78
2021/08/01 05:18:56;;;;;;;12.58;10.08;;;;;;;26.07;57.91;99549.57;1768347;79;21023;-79
2021/08/01 05:21:23;;;;;;;18.87;11.60;;;;;;;26.06;55.28;99549.22;1774206;80;21082;-78
2021/08/01 05:23:50;;;;;;;14.43;10.43;;;;;;;26.35;57.50;99545.13;1772448;80;21134;-77
2021/08/01 05:26:17;;;;;;;13.55;8.85;;;;;;;26.83;56.37;99539.23;1773429;80;21122;-79
2021/08/01 05:28:44;;;;;;;14.78;9.70;;;;;;;27.38;54.18;99536.91;1771205;80;21055;-76
2021/08/01 05:31:11;;;;;;;16.35;9.53;;;;;;;27.78;53.34;99535.41;1770748;80;21120;-78
2021/08/01 05:33:38;;;;;;;17.77;9.50;;;;;;;27.79;51.84;99531.67;1770403;79;21481;-76
2021/08/01 05:36:08;;;;;;;14.23;10.20;;;;;;;27.71;52.90;99535.30;1759253;80;21160;-76
2021/08/01 05:38:36;;;;;;;18.37;10.40;;;;;;;27.81;53.36;99537.26;1788674;78;21082;-76
2021/08/01 05:41:04;;;;;;;16.05;10.50;;;;;;;28.10;52.81;99528.05;1767118;80;21037;-75
2021/08/01 05:43:31;;;;;;;14.53;10.25;;;;;;;28.51;51.98;99524.92;1771016;78;21108;-77
2021/08/01 05:45:58;;;;;;;15.80;10.32;;;;;;;28.82;49.58;99527.39;1757557;79;22203;-78
2021/08/01 05:48:27;;;;;;;13.08;9.48;;;;;;;29.11;49.87;99524.34;1771090;79;21142;-76
2021/08/01 05:50:54;;;;;;;15.75;9.90;;;;;;;29.49;48.79;99526.27;1799957;78;21024;-77
2021/08/01 05:53:21;;;;;;;13.38;9.73;;;;;;;29.92;47.40;99525.43;1791452;78;21032;-78
2021/08/01 05:55:50;;;;;;;12.82;9.10;;;;;;;30.35;46.83;99521.27;1810909;78;21040;-75
2021/08/01 05:58:17;;;;;;;12.95;8.95;;;;;;;30.64;45.29;99523.70;1800656;79;21682;-77
2021/08/01 06:00:44;;;;;;;16.60;10.03;;;;;;;30.84;44.14;99533.33;1814596;78;21169;-76
2021/08/01 06:03:11;;;;;;;12.10;9.30;;;;;;;30.88;44.46;99534.61;1805677;78;21084;-77
2021/08/01 06:05:38;;;;;;;11.75;9.55;;;;;;;30.85;43.95;99543.68;1800978;79;21184;-75
2021/08/01 06:08:05;;;;;;;12.98;8.88;;;;;;;30.97;44.64;99539.35;1801149;78;21554;-79
2021/08/01 06:10:33;;;;;;;13.95;8.33;;;;;;;31.02;44.47;99545.02;1797921;78;21052;-78
2021/08/01 06:13:00;;;;;;;12.35;8.43;;;;;;;30.82;44.04;99546.78;1801272;78;21519;-78
2021/08/01 06:15:27;;;;;;;17.20;8.48;;;;;;;30.80;45.36;99551.58;1801172;79;21075;-76
2021/08/01 06:17:55;;;;;;;10.25;8.38;;;;;;;30.71;45.00;99554.98;1792819;79;21563;-78
2021/08/01 06:20:22;;;;;;;19.45;8.95;;;;;;;30.50;46.06;99549.13;1804137;78;20985;-76
2021/08/01 06:22:49;;;;;;;13.32;9.08;;;;;;;30.50;46.06;99549.13;1795537;78;21012;-77
2021/08/01 06:25:16;;;;;;;15.00;9.70;;;;;;;30.53;45.89;99550.11;1784645;80;21136;-78
2021/08/01 06:27:43;;;;;;;19.17;9.38;;;;;;;30.74;46.00;99539.13;1788438;78;21088;-77
2021/08/01 06:30:12;;;;;;;10.50;8.60;;;;;;;31.00;44.92;99544.91;1788452;78;21062;-77
2021/08/01 06:32:39;;;;;;;13.45;9.00;;;;;;;31.26;44.79;99544.13;1765233;79;21602;-77
2021/08/01 06:35:07;;;;;;;17.82;9.88;;;;;;;31.54;44.62;99535.33;1790239;78;21043;-77
2021/08/01 06:37:36;;;;;;;14.80;10.25;;;;;;;31.93;43.50;99536.89;1772708;80;21587;-78
2021/08/01 06:40:05;;;;;;;13.90;10.25;;;;;;;32.04;43.35;99528.66;1774954;80;21054;-76
2021/08/01 06:42:32;;;;;;;12.55;9.58;;;;;;;32.02;43.47;99523.41;1753880;81;21111;-77
2021/08/01 06:45:00;;;;;;;15.13;10.15;;;;;;;32.01;42.83;99525.00;1763589;80;21443;-77
2021/08/01 06:47:27;;;;;;;13.55;8.93;;;;;;;32.04;43.17;99516.40;1783467;78;21099;-77
2021/08/01 06:49:56;;;;;;;10.68;8.63;;;;;;;32.15;42.46;99522.56;1761093;80;21104;-78
2021/08/01 06:52:24;;;;;;;14.78;9.58;;;;;;;32.05;41.91;99518.06;1760549;80;21060;-77
2021/08/01 06:54:53;;;;;;;13.53;9.13;;;;;;;31.83;42.74;99518.27;1811524;78;28321;-76
2021/08/01 06:57:21;;;;;;;10.95;8.55;;;;;;;31.86;42.25;99520.56;1769145;79;21034;-76
2021/08/01 06:59:49;;;;;;;13.03;8.15;;;;;;;32.05;42.23;99515.33;1819071;78;21079;-78
2021/08/01 07:02:17;;;;;;;11.88;8.88;;;;;;;32.36;42.25;99518.21;1747710;79;21390;-77
2021/08/01 07:04:44;;;;;;;11.35;8.40;;;;;;;32.82;40.54;99524.59;1795583;79;21119;-78
2021/08/01 07:07:12;;;;;;;10.15;8.10;;;;;;;32.72;40.33;99527.78;1796635;79;21048;-79
2021/08/01 07:09:41;;;;;;;11.90;8.13;;;;;;;32.63;40.60;99530.44;1793259;78;21096;-76
2021/08/01 07:12:08;;;;;;;9.40;7.97;;;;;;;32.65;40.48;99532.42;1783096;79;21072;-77
2021/08/01 07:14:36;;;;;;;10.90;8.40;;;;;;;32.99;40.19;99532.59;1791411;79;21832;-78
2021/08/01 07:17:04;;;;;;;12.98;8.35;;;;;;;33.53;38.62;99533.12;1786116;78;21077;-76
2021/08/01 07:19:31;;;;;;;10.58;8.08;;;;;;;33.79;38.30;99531.27;1770254;80;21073;-78
2021/08/01 07:21:59;;;;;;;10.95;8.20;;;;;;;33.76;38.32;99538.02;1768768;80;21673;-77
2021/08/01 07:24:26;;;;;;;15.13;8.30;;;;;;;33.83;38.26;99529.77;1803464;78;21049;-77
2021/08/01 07:26:55;;;;;;;16.75;8.15;;;;;;;33.95;38.35;99538.90;1782976;78;21935;-76
2021/08/01 07:29:24;;;;;;;10.08;7.60;;;;;;;34.06;37.48;99538.17;1789228;78;21017;-78
2021/08/01 07:31:55;;;;;;;11.28;7.70;;;;;;;33.89;38.07;99535.72;1758345;80;21019;-77
2021/08/01 07:34:22;;;;;;;;;;;;;;;33.41;38.89;99534.90;1770933;80;20997;-78
2021/08/01 07:36:49;;;;;;;11.68;9.25;;;;;;;33.07;39.70;99531.53;1748806;80;20263;-78
2021/08/01 07:39:16;;;;;;;10.58;8.20;;;;;;;33.03;39.99;99534.34;1774232;79;21527;-77
2021/08/01 07:41:43;;;;;;;12.73;8.63;;;;;;;32.93;39.95;99533.98;1767992;79;21083;-77
2021/08/01 07:44:10;;;;;;;10.68;8.13;;;;;;;32.61;40.72;99535.27;1757614;80;21752;-77
2021/08/01 07:46:39;;;;;;;12.40;7.92;;;;;;;32.34;40.90;99534.46;1757321;80;21001;-77
2021/08/01 07:49:06;;;;;;;16.42;9.25;;;;;;;31.88;41.49;99542.97;1759818;80;21093;-77
2021/08/01 07:51:33;;;;;;;10.75;8.30;;;;;;;31.51;42.99;99537.09;1767667;80;21124;-78
2021/08/01 07:54:01;;;;;;;17.27;8.95;;;;;;;31.23;43.34;99540.47;1756726;80;21431;-78
2021/08/01 07:56:28;;;;;;;11.83;8.93;;;;;;;31.31;43.48;99545.20;1778962;80;21053;-77
2021/08/01 07:58:55;;;;;;;13.62;8.98;;;;;;;31.66;43.42;99540.16;1782327;80;21620;-76
2021/08/01 08:01:22;;;;;;;15.38;9.05;;;;;;;31.83;41.97;99531.05;1784788;80;21047;-77
2021/08/01 08:03:50;;;;;;;15.95;8.28;;;;;;;32.14;42.36;99522.23;1755346;80;21081;-76
2021/08/01 08:06:17;;;;;;;13.30;8.65;;;;;;;32.55;41.05;99527.94;1765675;80;21115;-75
2021/08/01 08:08:47;;;;;;;12.63;8.50;;;;;;;32.87;40.80;99525.30;1769419;80;21104;-80
2021/08/01 08:11:14;;;;;;;12.78;7.60;;;;;;;33.18;40.08;99519.92;1762191;80;21004;-77
2021/08/01 08:13:42;;;;;;;12.98;8.35;;;;;;;33.41;39.16;99515.80;1775015;80;21336;-78
2021/08/01 08:16:09;;;;;;;10.45;7.50;;;;;;;33.53;39.67;99516.75;1777894;80;21357;-75
2021/08/01 08:18:36;;;;;;;10.28;7.53;;;;;;;33.45;38.80;99523.83;1779670;80;21057;-78
2021/08/01 08:21:03;;;;;;;13.30;8.13;;;;;;;33.71;37.65;99517.91;1772035;80;21123;-77
2021/08/01 08:23:30;;;;;;;13.05;8.30;;;;;;;33.99;37.66;99519.64;1762741;80;21082;-77
2021/08/01 08:25:57;;;;;;;13.25;8.40;;;;;;;34.15;38.04;99516.06;1766217;80;21083;-77
2021/08/01 08:28:23;;;;;;;13.08;8.00;;;;;;;34.38;37.21;99522.23;1764472;80;21139;-77
2021/08/01 08:30:50;;;;;;;13.83;8.18;;;;;;;34.34;37.15;99524.57;1797743;79;21043;-78
2021/08/01 08:33:19;;;;;;;11.75;8.20;;;;;;;34.15;36.92;99522.89;1791396;79;21461;-77
2021/08/01 08:35:46;;;;;;;12.05;8.98;;;;;;;34.08;37.62;99533.86;1781667;79;21175;-75
2021/08/01 08:38:13;;;;;;;18.80;8.45;;;;;;;34.06;37.79;99529.14;1782602;79;21299;-78
2021/08/01 08:40:40;;;;;;;12.13;8.23;;;;;;;34.16;38.07;99542.31;1798144;79;21091;-76
2021/08/01 08:43:08;;;;;;;23.67;9.18;;;;;;;33.95;37.89;99534.80;1800649;78;21024;-77
2021/08/01 08:45:35;;;;;;;17.80;9.68;;;;;;;33.66;38.52;99536.33;1805765;78;21063;-77
2021/08/01 08:48:02;;;;;;;12.37;8.95;;;;;;;33.47;39.23;99543.55;1792876;78;21108;-76
2021/08/01 08:50:29;;;;;;;16.77;9.13;;;;;;;33.43;40.25;99542.34;1784613;78;22100;-77
2021/08/01 08:53:00;;;;;;;14.80;9.35;;;;;;;32.95;40.25;99537.34;1780984;79;21219;-79
2021/08/01 08:55:32;;;;;;;13.75;8.60;;;;;;;32.64;40.71;99533.46;1779635;79;21090;-79
2021/08/01 08:58:00;;;;;;;24.47;9.53;;;;;;;32.67;41.04;99532.19;1775789;79;21041;-79
2021/08/01 09:00:27;;;;;;;16.10;8.95;;;;;;;32.71;40.98;99524.73;1778866;80;21527;-79
2021/08/01 09:02:55;;;;;;;16.73;8.83;;;;;;;32.95;40.86;99526.43;1791675;78;21056;-78
2021/08/01 09:05:22;;;;;;;19.87;7.80;;;;;;;33.15;40.06;99525.83;1773034;79;22060;-78
2021/08/01 09:07:51;;;;;;;33.88;8.43;;;;;;;33.10;40.38;99520.70;1800660;79;21042;-81
2021/08/01 09:10:18;;;;;;;15.10;9.60;;;;;;;33.17;40.35;99527.78;1801074;79;21038;-81
2021/08/01 09:12:51;;;;;;;15.20;8.93;;;;;;;33.34;39.74;99523.20;1802147;79;21057;-81
2021/08/01 09:15:24;;;;;;;11.78;7.62;;;;;;;33.55;39.59;99530.19;1818106;78;21065;-78
2021/08/01 09:17:55;;;;;;;14.53;8.08;;;;;;;33.35;39.40;99528.95;1819883;78;21992;-80
2021/08/01 09:20:34;;;;;;;14.87;8.30;;;;;;;33.30;39.64;99526.88;1804562;78;21543;-81
2021/08/01 09:23:08;;;;;;;14.45;9.38;;;;;;;33.53;40.21;99531.76;1792418;79;21513;-79
2021/08/01 09:25:38;;;;;;;14.07;7.90;;;;;;;33.74;39.40;99527.02;1836141;78;20991;-79
2021/08/01 09:28:15;;;;;;;12.25;7.92;;;;;;;34.03;38.45;99526.34;1828691;78;21053;-78
2021/08/01 09:30:55;;;;;;;15.32;8.98;;;;;;;34.37;38.98;99524.14;1786931;79;21115;-78
2021/08/01 09:33:45;;;;;;;13.60;8.40;;;;;;;34.23;38.37;99529.41;1793601;78;21031;-78
2021/08/01 09:36:22;;;;;;;14.78;8.78;;;;;;;33.87;39.12;99524.18;1762147;79;21016;-80
2021/08/01 09:38:56;;;;;;;19.32;9.05;;;;;;;33.21;41.09;99526.30;1773857;79;21077;-76
2021/08/01 09:41:26;;;;;;;15.05;8.78;;;;;;;32.82;41.10;99521.86;1778499;78;21017;-77
2021/08/01 09:43:56;;;;;;;15.53;8.93;;;;;;;32.64;42.50;99523.92;1807434;78;21220;-78
2021/08/01 09:46:45;;;;;;;15.60;8.83;;;;;;;32.59;43.02;99521.01;1764744;79;21088;-78
2021/08/01 09:49:23;;;;;;;16.87;10.03;;;;;;;32.59;41.42;99519.65;1787475;78;21028;-81
2021/08/01 09:51:54;;;;;;;19.23;9.70;;;;;;;32.56;43.46;99525.54;1769309;79;21136;-80
2021/08/01 09:54:24;;;;;;;17.98;9.58;;;;;;;32.61;43.14;99517.55;1782574;79;21104;-78
2021/08/01 09:57:07;;;;;;;15.88;9.50;;;;;;;32.80;42.71;99516.61;1758675;80;21367;-81
2021/08/01 09:59:32;;;;;;;32.48;9.45;;;;;;;32.92;43.20;99521.39;1789888;79;21087;-78
2021/08/01 10:02:02;;;;;;;12.88;8.58;;;;;;;32.87;42.70;99523.94;1787675;79;21060;-80
2021/08/01 10:04:40;;;;;;;12.28;7.35;;;;;;;32.47;43.58;99529.52;1769059;80;20986;-78
2021/08/01 10:07:15;;;;;;;10.88;6.95;;;;;;;32.30;42.07;99527.26;1805582;78;22242;-79
2021/08/01 10:09:45;;;;;;;13.15;7.05;;;;;;;32.17;41.09;99527.28;1793968;78;21098;-77
2021/08/01 10:12:12;;;;;;;16.70;7.60;;;;;;;31.85;42.82;99531.67;1764355;79;21139;-80
2021/08/01 10:14:39;;;;;;;12.00;6.65;;;;;;;31.75;43.78;99528.02;1790206;78;21089;-78
2021/08/01 10:17:06;;;;;;;16.73;7.60;;;;;;;31.72;41.64;99529.78;1775466;78;21025;-77
2021/08/01 10:19:37;;;;;;;15.25;7.05;;;;;;;31.78;43.64;99528.95;1778213;80;21025;-78
2021/08/01 10:22:04;;;;;;;19.00;7.00;;;;;;;31.37;43.72;99532.65;1775726;78;21123;-79
2021/08/01 10:24:44;;;;;;;13.85;7.40;;;;;;;30.61;45.21;99552.64;1781227;78;21730;-78
2021/08/01 10:27:11;;;;;;;10.03;6.60;;;;;;;30.08;46.85;99527.31;1781237;80;21053;-77
2021/08/01 10:29:53;;;;;;;14.65;6.65;;;;;;;29.76;46.96;99529.27;1786104;80;21562;-78
2021/08/01 10:32:21;;;;;;;13.45;6.78;;;;;;;29.46;48.38;99530.21;1782012;80;21052;-79
2021/08/01 10:35:08;;;;;;;17.05;7.70;;;;;;;29.03;50.08;99536.95;1784655;78;21111;-78
2021/08/01 10:37:52;;;;;;;12.53;7.90;;;;;;;28.93;50.07;99530.97;1759491;78;20996;-78
2021/08/01 10:40:23;;;;;;;14.30;7.97;;;;;;;28.83;52.29;99529.09;1776633;80;21377;-79
2021/08/01 10:42:57;;;;;;;13.10;7.65;;;;;;;28.71;53.25;99530.58;1765629;79;21045;-80
2021/08/01 10:45:24;;;;;;;22.27;9.08;;;;;;;28.57;54.29;99527.70;1779271;78;21029;-81
2021/08/01 10:47:52;;;;;;;14.90;8.85;;;;;;;28.47;55.77;99527.16;1795402;78;21143;-82
2021/08/01 10:50:27;;;;;;;12.40;8.45;;;;;;;28.37;55.24;99530.64;1766016;78;21089;-77
2021/08/01 10:53:23;;;;;;;14.95;8.08;;;;;;;28.32;54.08;99526.27;1773784;78;21014;-80
2021/08/01 10:56:08;;;;;;;11.75;8.70;;;;;;;28.35;55.60;99525.92;1764783;78;21062;-80
2021/08/01 10:58:38;;;;;;;18.50;9.03;;;;;;;28.51;55.13;99523.05;1767424;80;21096;-80
2021/08/01 11:01:09;;;;;;;12.33;8.18;;;;;;;28.65;52.78;99520.84;1780297;80;21099;-79
2021/08/01 11:03:39;;;;;;;12.07;8.43;;;;;;;28.78;54.43;99517.95;1774009;78;21080;-80
2021/08/01 11:06:27;;;;;;;11.10;8.53;;;;;;;28.89;53.88;99520.18;1779348;78;21111;-79
2021/08/01 11:09:15;;;;;;;12.30;9.28;;;;;;;28.96;53.31;99518.38;1739656;80;21136;-82
2021/08/01 11:11:45;;;;;;;12.85;8.23;;;;;;;29.05;54.15;99513.69;1758601;80;21072;-80
2021/08/01 11:14:50;;;;;;;11.48;8.18;;;;;;;29.18;51.85;99515.75;1761354;81;21707;-81
2021/08/01 11:17:17;;;;;;;13.95;8.18;;;;;;;29.25;51.56;99509.36;1800199;79;21056;-80
2021/08/01 11:19:44;;;;;;;13.43;8.58;;;;;;;29.41;52.64;99502.84;1795570;78;21072;-78
2021/08/01 11:22:43;;;;;;;15.93;8.33;;;;;;;29.62;50.51;99501.14;1800066;79;21614;-76
2021/08/01 11:25:33;;;;;;;12.33;8.50;;;;;;;29.81;49.67;99508.63;1809290;78;21551;-77
2021/08/01 11:28:28;;;;;;;14.40;8.88;;;;;;;30.02;50.72;99502.83;1794673;79;21108;-77
2021/08/01 11:31:04;;;;;;;18.77;8.65;;;;;;;30.20;49.88;99504.52;1783989;79;21084;-77
2021/08/01 11:35:31;;;;;;;13.08;8.48;;;;;;;30.53;49.32;99499.31;1783507;78;23282;-77
2021/08/01 11:38:08;;;;;;;13.22;8.38;;;;;;;30.58;47.87;99497.34;1741085;80;21025;-77
2021/08/01 11:40:45;;;;;;;16.52;9.00;;;;;;;30.62;46.62;99495.05;1738557;81;22151;-77